createdAt,value
2018-05-07T00:00:18.173Z,17.76
2018-05-07T00:02:29.239Z,17.75
2018-05-07T00:04:40.381Z,17.84
2018-05-07T00:06:51.543Z,17.90
2018-05-07T00:09:02.668Z,17.89
2018-05-07T00:11:13.725Z,17.81
2018-05-07T00:13:24.806Z,17.77
2018-05-07T00:15:35.914Z,17.77
2018-05-07T00:17:47.021Z,17.75
2018-05-07T00:19:58.201Z,17.72
2018-05-07T00:22:09.330Z,17.75
2018-05-07T00:24:20.383Z,17.71
2018-05-07T00:26:31.524Z,17.74
2018-05-07T00:28:42.560Z,17.80
2018-05-07T00:30:53.646Z,17.81
2018-05-07T00:33:04.733Z,17.74
2018-05-07T00:35:15.958Z,17.73
2018-05-07T00:37:27.023Z,17.71
2018-05-07T00:39:38.262Z,17.65
2018-05-07T00:41:49.326Z,17.57
2018-05-07T00:44:00.449Z,17.48
2018-05-07T00:46:11.557Z,17.48
2018-05-07T00:48:22.610Z,17.50
2018-05-07T00:50:33.807Z,17.50
2018-05-07T00:52:44.848Z,17.50
2018-05-07T00:55:08.281Z,17.45
2018-05-07T00:57:19.333Z,17.37
2018-05-07T00:59:30.444Z,17.34
2018-05-07T01:01:41.563Z,17.31
2018-05-07T01:03:52.790Z,17.32
2018-05-07T01:06:03.992Z,17.23
2018-05-07T01:08:15.101Z,17.17
2018-05-07T01:10:26.285Z,17.14
2018-05-07T01:12:37.386Z,17.11
2018-05-07T01:14:48.449Z,17.09
2018-05-07T01:16:59.562Z,17.05
2018-05-07T01:19:10.617Z,17.04
2018-05-07T01:21:21.786Z,16.95
2018-05-07T01:23:32.869Z,16.89
2018-05-07T01:25:44.002Z,16.83
2018-05-07T01:27:55.102Z,16.78
2018-05-07T01:30:06.301Z,16.67
2018-05-07T01:32:17.400Z,16.62
2018-05-07T01:34:28.454Z,16.57
2018-05-07T01:36:39.519Z,16.51
2018-05-07T01:38:50.618Z,16.47
2018-05-07T01:41:01.813Z,16.48
2018-05-07T01:43:12.970Z,16.44
2018-05-07T01:45:24.089Z,16.41
2018-05-07T01:47:35.169Z,16.42
2018-05-07T01:49:46.287Z,16.40
2018-05-07T01:51:57.357Z,16.40
2018-05-07T01:54:08.465Z,16.36
2018-05-07T01:56:19.517Z,16.27
2018-05-07T01:58:30.630Z,16.19
2018-05-07T02:00:41.866Z,16.11
2018-05-07T02:02:53.882Z,16.09
2018-05-07T02:05:04.990Z,16.04
2018-05-07T02:07:16.190Z,16.00
2018-05-07T02:09:27.295Z,15.90
2018-05-07T02:11:38.400Z,15.83
2018-05-07T02:13:49.530Z,15.82
2018-05-07T02:16:00.644Z,15.75
2018-05-07T02:18:11.726Z,15.63
2018-05-07T02:20:22.838Z,15.62
2018-05-07T02:22:33.891Z,15.67
2018-05-07T02:24:44.981Z,15.66
2018-05-07T02:26:56.074Z,15.67
2018-05-07T02:29:07.170Z,15.75
2018-05-07T02:31:18.284Z,15.75
2018-05-07T02:33:29.347Z,15.72
2018-05-07T02:35:40.526Z,15.66
2018-05-07T02:37:51.582Z,15.60
2018-05-07T02:40:02.638Z,15.64
2018-05-07T02:42:13.831Z,15.54
2018-05-07T02:44:24.955Z,15.44
2018-05-07T02:46:36.081Z,15.36
2018-05-07T02:48:47.196Z,15.29
2018-05-07T02:50:58.434Z,15.29
2018-05-07T02:53:09.496Z,15.33
2018-05-07T02:55:20.575Z,15.29
2018-05-07T02:57:31.663Z,15.30
2018-05-07T02:59:42.727Z,15.31
2018-05-07T03:01:53.801Z,15.24
2018-05-07T03:04:04.966Z,15.12
2018-05-07T03:06:16.116Z,15.10
2018-05-07T03:08:27.255Z,15.06
2018-05-07T03:10:38.341Z,15.03
2018-05-07T03:12:49.447Z,15.02
2018-05-07T03:15:00.534Z,15.00
2018-05-07T03:17:11.598Z,14.97
2018-05-07T03:19:22.685Z,14.97
2018-05-07T03:21:33.809Z,14.92
2018-05-07T03:23:45.038Z,14.84
2018-05-07T03:25:56.246Z,14.75
2018-05-07T03:28:07.357Z,14.68
2018-05-07T03:30:18.658Z,14.64
2018-05-07T03:32:29.745Z,14.61
2018-05-07T03:34:40.858Z,14.60
2018-05-07T03:36:51.921Z,14.55
2018-05-07T03:39:02.970Z,14.51
2018-05-07T03:41:14.122Z,14.50
2018-05-07T03:43:25.221Z,14.43
2018-05-07T03:45:36.364Z,14.44
2018-05-07T03:47:47.443Z,14.44
2018-05-07T03:49:58.558Z,14.40
2018-05-07T03:52:09.634Z,14.38
2018-05-07T03:54:20.677Z,14.38
2018-05-07T03:56:31.742Z,14.38
2018-05-07T03:58:42.917Z,14.41
2018-05-07T04:00:54.084Z,14.38
2018-05-07T04:03:05.274Z,14.37
2018-05-07T04:05:16.415Z,14.35
2018-05-07T04:07:27.571Z,14.33
2018-05-07T04:09:39.418Z,14.36
2018-05-07T04:11:50.739Z,14.38
2018-05-07T04:14:01.810Z,14.34
2018-05-07T04:16:12.954Z,14.35
2018-05-07T04:18:36.314Z,14.49
2018-05-07T04:20:59.650Z,14.62
2018-05-07T04:23:23.140Z,14.63
2018-05-07T04:25:34.214Z,14.60
2018-05-07T04:27:45.314Z,14.57
2018-05-07T04:29:56.394Z,14.59
2018-05-07T04:32:07.457Z,14.65
2018-05-07T04:34:18.658Z,14.77
2018-05-07T04:36:29.736Z,14.93
2018-05-07T04:38:40.866Z,15.10
2018-05-07T04:40:51.971Z,15.26
2018-05-07T04:43:03.154Z,15.34
2018-05-07T04:45:14.257Z,15.46
2018-05-07T04:47:25.326Z,15.60
2018-05-07T04:49:36.431Z,15.73
2018-05-07T04:51:47.506Z,15.86
2018-05-07T04:53:58.680Z,15.93
2018-05-07T04:56:09.770Z,16.07
2018-05-07T04:58:20.994Z,16.18
2018-05-07T05:00:32.083Z,16.27
2018-05-07T05:02:43.277Z,16.36
2018-05-07T05:04:54.743Z,16.48
2018-05-07T05:07:05.907Z,16.48
2018-05-07T05:09:17.859Z,16.55
2018-05-07T05:11:29.015Z,16.63
2018-05-07T05:13:40.114Z,16.72
2018-05-07T05:15:51.218Z,16.81
2018-05-07T05:18:02.330Z,16.86
2018-05-07T05:20:13.378Z,16.98
2018-05-07T05:22:24.461Z,17.03
2018-05-07T05:24:35.545Z,17.16
2018-05-07T05:26:46.710Z,17.29
2018-05-07T05:28:57.886Z,17.41
2018-05-07T05:31:08.965Z,17.53
2018-05-07T05:33:20.086Z,17.64
2018-05-07T05:35:31.258Z,17.83
2018-05-07T05:37:42.368Z,17.97
2018-05-07T05:39:53.503Z,18.11
2018-05-07T05:42:04.580Z,18.31
2018-05-07T05:44:15.718Z,18.41
2018-05-07T05:46:28.722Z,18.60
2018-05-07T05:48:39.806Z,18.64
2018-05-07T05:50:51.058Z,18.75
2018-05-07T05:53:02.126Z,18.87
2018-05-07T05:55:13.331Z,19.01
2018-05-07T05:57:24.452Z,19.18
2018-05-07T05:59:35.514Z,19.26
2018-05-07T06:01:46.635Z,19.46
2018-05-07T06:03:57.736Z,19.64
2018-05-07T06:06:08.877Z,19.85
2018-05-07T06:08:19.985Z,19.99
2018-05-07T06:10:31.223Z,20.19
2018-05-07T06:12:42.345Z,20.36
2018-05-07T06:14:53.452Z,20.42
2018-05-07T06:17:04.540Z,20.58
2018-05-07T06:19:15.606Z,20.78
2018-05-07T06:21:26.709Z,20.95
2018-05-07T06:23:37.793Z,21.14
2018-05-07T06:25:48.946Z,21.30
2018-05-07T06:28:00.045Z,21.47
2018-05-07T06:30:11.171Z,21.63
2018-05-07T06:32:22.303Z,21.87
2018-05-07T06:34:33.381Z,22.06
2018-05-07T06:36:44.470Z,22.35
2018-05-07T06:38:55.537Z,22.65
2018-05-07T06:41:06.631Z,22.93
2018-05-07T06:43:17.718Z,23.08
2018-05-07T06:45:28.930Z,23.09
2018-05-07T06:47:40.001Z,23.18
2018-05-07T06:49:51.108Z,23.36
2018-05-07T06:52:02.217Z,23.48
2018-05-07T06:54:13.306Z,23.69
2018-05-07T06:56:24.365Z,23.96
2018-05-07T06:58:35.537Z,24.05
2018-05-07T07:00:46.605Z,24.27
2018-05-07T07:02:57.779Z,24.41
2018-05-07T07:05:09.714Z,24.45
2018-05-07T07:07:20.901Z,24.48
2018-05-07T07:09:31.939Z,24.36
2018-05-07T07:11:43.119Z,24.36
2018-05-07T07:13:54.198Z,24.42
2018-05-07T07:16:05.366Z,24.66
2018-05-07T07:18:16.433Z,24.84
2018-05-07T07:20:27.578Z,25.05
2018-05-07T07:22:38.638Z,25.41
2018-05-07T07:24:49.718Z,25.45
2018-05-07T07:27:00.791Z,25.47
2018-05-07T07:29:11.981Z,25.43
2018-05-07T07:31:23.277Z,25.56
2018-05-07T07:33:34.361Z,25.47
2018-05-07T07:35:45.495Z,25.28
2018-05-07T07:37:56.636Z,25.29
2018-05-07T07:40:07.724Z,25.36
2018-05-07T07:42:18.825Z,25.39
2018-05-07T07:44:29.912Z,25.55
2018-05-07T07:46:41.106Z,25.57
2018-05-07T07:48:52.210Z,25.55
2018-05-07T07:51:03.402Z,25.80
2018-05-07T07:53:14.473Z,25.94
2018-05-07T07:55:25.602Z,26.04
2018-05-07T07:57:36.709Z,26.27
2018-05-07T07:59:47.804Z,26.24
2018-05-07T08:01:58.933Z,26.49
2018-05-07T08:04:10.084Z,26.81
2018-05-07T08:06:21.119Z,26.80
2018-05-07T08:08:32.238Z,26.67
2018-05-07T08:10:43.430Z,26.77
2018-05-07T08:12:54.566Z,26.70
2018-05-07T08:15:05.678Z,26.79
2018-05-07T08:17:16.779Z,26.97
2018-05-07T08:19:27.898Z,27.02
2018-05-07T08:21:38.985Z,27.03
2018-05-07T08:23:50.069Z,27.05
2018-05-07T08:26:01.245Z,26.98
2018-05-07T08:28:12.352Z,27.18
2018-05-07T08:30:23.581Z,27.03
2018-05-07T08:32:34.578Z,26.90
2018-05-07T08:34:45.801Z,26.78
2018-05-07T08:36:56.874Z,26.76
2018-05-07T08:39:07.923Z,26.76
2018-05-07T08:41:19.010Z,26.78
2018-05-07T08:43:30.109Z,26.80
2018-05-07T08:45:41.258Z,27.02
2018-05-07T08:47:52.332Z,26.90
2018-05-07T08:50:03.558Z,26.81
2018-05-07T08:52:14.642Z,26.93
2018-05-07T08:54:25.809Z,27.10
2018-05-07T08:56:36.886Z,27.18
2018-05-07T08:58:48.042Z,27.15
2018-05-07T09:00:59.127Z,27.21
2018-05-07T09:03:10.206Z,27.43
2018-05-07T09:05:21.439Z,27.51
2018-05-07T09:07:32.632Z,27.67
2018-05-07T09:09:43.782Z,27.67
2018-05-07T09:11:54.982Z,27.71
2018-05-07T09:14:06.207Z,27.53
2018-05-07T09:16:17.318Z,27.73
2018-05-07T09:18:29.145Z,27.63
2018-05-07T09:20:40.311Z,27.58
2018-05-07T09:22:51.367Z,27.63
2018-05-07T09:25:02.497Z,27.53
2018-05-07T09:27:13.643Z,27.40
2018-05-07T09:29:24.723Z,27.21
2018-05-07T09:31:36.003Z,27.12
2018-05-07T09:33:46.985Z,27.27
2018-05-07T09:35:58.136Z,27.35
2018-05-07T09:38:09.349Z,27.32
2018-05-07T09:40:20.668Z,27.33
2018-05-07T09:42:31.964Z,27.36
2018-05-07T09:44:43.058Z,27.18
2018-05-07T09:46:54.304Z,27.06
2018-05-07T09:49:05.432Z,26.85
2018-05-07T09:51:16.510Z,26.52
2018-05-07T09:53:27.629Z,26.42
2018-05-07T09:55:38.749Z,26.54
2018-05-07T09:58:02.127Z,26.50
2018-05-07T10:00:13.213Z,26.67
2018-05-07T10:02:24.344Z,26.62
2018-05-07T10:04:35.421Z,26.50
2018-05-07T10:06:46.527Z,26.43
2018-05-07T10:08:57.647Z,26.50
2018-05-07T10:11:08.767Z,26.61
2018-05-07T10:13:20.190Z,26.74
2018-05-07T10:15:31.291Z,26.66
2018-05-07T10:17:42.413Z,26.74
2018-05-07T10:19:53.587Z,26.85
2018-05-07T10:22:04.689Z,27.01
2018-05-07T10:24:15.891Z,27.18
2018-05-07T10:26:26.928Z,27.42
2018-05-07T10:28:38.042Z,27.51
2018-05-07T10:30:49.139Z,27.46
2018-05-07T10:33:00.478Z,27.54
2018-05-07T10:35:11.752Z,27.45
2018-05-07T10:37:22.880Z,27.35
2018-05-07T10:39:34.034Z,27.35
2018-05-07T10:41:45.105Z,27.47
2018-05-07T10:43:56.167Z,27.56
2018-05-07T10:46:07.894Z,27.62
2018-05-07T10:48:18.994Z,27.80
2018-05-07T10:50:30.078Z,27.65
2018-05-07T10:52:41.225Z,27.51
2018-05-07T10:54:52.301Z,27.64
2018-05-07T10:57:03.398Z,27.66
2018-05-07T10:59:14.518Z,27.61
2018-05-07T11:01:25.704Z,27.56
2018-05-07T11:03:36.902Z,27.43
2018-05-07T11:05:48.066Z,27.50
2018-05-07T11:07:59.197Z,27.66
2018-05-07T11:10:10.280Z,27.55
2018-05-07T11:12:21.418Z,27.34
2018-05-07T11:14:32.594Z,27.24
2018-05-07T11:16:43.690Z,26.92
2018-05-07T11:18:54.841Z,26.69
2018-05-07T11:21:06.022Z,26.62
2018-05-07T11:23:17.146Z,26.67
2018-05-07T11:25:28.303Z,26.48
2018-05-07T11:27:39.355Z,26.26
2018-05-07T11:29:50.682Z,26.12
2018-05-07T11:32:01.802Z,26.31
2018-05-07T11:34:12.911Z,26.48
2018-05-07T11:36:23.978Z,26.58
2018-05-07T11:38:35.056Z,26.62
2018-05-07T11:40:46.334Z,26.82
2018-05-07T11:42:57.439Z,26.87
2018-05-07T11:45:08.590Z,26.73
2018-05-07T11:47:19.745Z,26.56
2018-05-07T11:49:30.827Z,26.64
2018-05-07T11:51:41.925Z,26.79
2018-05-07T11:53:53.034Z,26.83
2018-05-07T11:56:04.134Z,26.72
2018-05-07T11:58:15.263Z,26.74
2018-05-07T12:00:26.400Z,26.88
2018-05-07T12:02:37.527Z,26.98
2018-05-07T12:04:48.657Z,27.04
2018-05-07T12:06:59.770Z,27.02
2018-05-07T12:09:10.850Z,26.91
2018-05-07T12:11:21.980Z,26.93
2018-05-07T12:13:33.113Z,26.87
2018-05-07T12:15:44.267Z,26.84
2018-05-07T12:17:55.334Z,26.95
2018-05-07T12:20:06.708Z,26.96
2018-05-07T12:22:17.883Z,26.86
2018-05-07T12:24:29.030Z,26.76
2018-05-07T12:26:40.311Z,26.85
2018-05-07T12:28:51.407Z,26.97
2018-05-07T12:31:02.536Z,27.11
2018-05-07T12:33:13.645Z,27.05
2018-05-07T12:35:24.731Z,26.86
2018-05-07T12:37:35.919Z,26.78
2018-05-07T12:39:46.947Z,26.86
2018-05-07T12:41:58.102Z,26.92
2018-05-07T12:44:09.217Z,26.89
2018-05-07T12:46:20.402Z,26.71
2018-05-07T12:48:31.538Z,26.65
2018-05-07T12:50:42.669Z,26.55
2018-05-07T12:52:53.750Z,26.62
2018-05-07T12:55:04.841Z,26.73
2018-05-07T12:57:15.949Z,26.80
2018-05-07T12:59:27.030Z,26.83
2018-05-07T13:01:38.304Z,26.87
2018-05-07T13:03:49.393Z,26.66
2018-05-07T13:06:00.534Z,26.69
2018-05-07T13:08:11.643Z,26.69
2018-05-07T13:10:22.842Z,26.76
2018-05-07T13:12:34.648Z,26.80
2018-05-07T13:14:45.739Z,26.78
2018-05-07T13:16:57.014Z,26.81
2018-05-07T13:19:08.082Z,26.88
2018-05-07T13:21:19.263Z,26.96
2018-05-07T13:23:30.330Z,26.96
2018-05-07T13:25:41.409Z,26.95
2018-05-07T13:27:52.578Z,26.88
2018-05-07T13:30:03.705Z,26.83
2018-05-07T13:32:14.877Z,26.82
2018-05-07T13:34:26.055Z,26.76
2018-05-07T13:36:37.230Z,26.66
2018-05-07T13:38:48.622Z,26.56
2018-05-07T13:40:59.723Z,26.52
2018-05-07T13:43:11.007Z,26.56
2018-05-07T13:45:22.007Z,26.64
2018-05-07T13:47:33.110Z,26.65
2018-05-07T13:49:44.246Z,26.59
2018-05-07T13:51:55.306Z,26.53
2018-05-07T13:54:06.434Z,26.43
2018-05-07T13:56:17.588Z,26.41
2018-05-07T13:58:29.608Z,26.49
2018-05-07T14:00:40.765Z,26.47
2018-05-07T14:02:51.859Z,26.40
2018-05-07T14:05:03.011Z,26.42
2018-05-07T14:07:14.093Z,26.43
2018-05-07T14:09:25.362Z,26.42
2018-05-07T14:11:36.482Z,26.42
2018-05-07T14:13:47.587Z,26.42
2018-05-07T14:15:58.697Z,26.42
2018-05-07T14:18:09.757Z,26.47
2018-05-07T14:20:21.663Z,26.44
2018-05-07T14:22:32.774Z,26.47
2018-05-07T14:24:43.887Z,26.54
2018-05-07T14:26:54.955Z,26.44
2018-05-07T14:29:08.624Z,26.36
2018-05-07T14:31:19.745Z,26.24
2018-05-07T14:33:30.913Z,26.30
2018-05-07T14:35:42.016Z,26.31
2018-05-07T14:37:53.176Z,26.36
2018-05-07T14:40:04.282Z,26.42
2018-05-07T14:42:15.403Z,26.45
2018-05-07T14:44:26.456Z,26.52
2018-05-07T14:46:37.574Z,26.58
2018-05-07T14:48:48.659Z,26.55
2018-05-07T14:50:59.730Z,26.53
2018-05-07T14:53:10.939Z,26.52
2018-05-07T14:55:22.023Z,26.51
2018-05-07T14:57:33.117Z,26.48
2018-05-07T14:59:44.887Z,26.37
2018-05-07T15:01:57.062Z,26.30
2018-05-07T15:04:08.165Z,26.23
2018-05-07T15:06:19.306Z,26.17
2018-05-07T15:08:30.454Z,26.20
2018-05-07T15:10:41.529Z,26.31
2018-05-07T15:12:52.658Z,26.35
2018-05-07T15:15:03.819Z,26.31
2018-05-07T15:17:15.013Z,26.23
2018-05-07T15:19:26.162Z,26.19
2018-05-07T15:21:37.438Z,26.19
2018-05-07T15:23:48.597Z,26.21
2018-05-07T15:25:59.703Z,26.15
2018-05-07T15:28:10.777Z,26.12
2018-05-07T15:30:26.392Z,26.13
2018-05-07T15:32:37.535Z,26.17
2018-05-07T15:34:48.676Z,26.18
2018-05-07T15:36:59.745Z,26.23
2018-05-07T15:39:10.849Z,26.21
2018-05-07T15:41:21.976Z,26.17
2018-05-07T15:43:33.109Z,26.11
2018-05-07T15:45:44.219Z,26.05
2018-05-07T15:47:55.455Z,26.02
2018-05-07T15:50:06.477Z,26.03
2018-05-07T15:52:17.601Z,26.08
2018-05-07T15:54:28.756Z,26.18
2018-05-07T15:56:39.806Z,26.14
2018-05-07T15:58:50.888Z,26.12
2018-05-07T16:01:02.018Z,26.11
2018-05-07T16:03:13.316Z,26.10
2018-05-07T16:05:24.339Z,26.14
2018-05-07T16:07:35.466Z,26.10
2018-05-07T16:09:46.576Z,26.05
2018-05-07T16:11:57.735Z,26.03
2018-05-07T16:14:08.862Z,26.01
2018-05-07T16:16:19.982Z,25.97
2018-05-07T16:18:31.106Z,25.96
2018-05-07T16:20:42.207Z,25.95
2018-05-07T16:22:53.270Z,25.96
2018-05-07T16:25:04.374Z,25.98
2018-05-07T16:27:15.469Z,25.98
2018-05-07T16:29:26.619Z,25.98
2018-05-07T16:31:37.678Z,25.97
2018-05-07T16:33:48.738Z,25.92
2018-05-07T16:35:59.860Z,25.83
2018-05-07T16:38:10.934Z,25.79
2018-05-07T16:40:22.163Z,25.81
2018-05-07T16:42:33.321Z,25.72
2018-05-07T16:44:44.471Z,25.70
2018-05-07T16:46:55.650Z,25.59
2018-05-07T16:49:06.809Z,25.56
2018-05-07T16:51:17.866Z,25.58
2018-05-07T16:53:28.969Z,25.54
2018-05-07T16:55:40.086Z,25.47
2018-05-07T16:57:51.235Z,25.44
2018-05-07T17:00:02.337Z,25.39
2018-05-07T17:02:13.451Z,25.39
2018-05-07T17:04:24.518Z,25.39
2018-05-07T17:06:35.796Z,25.40
2018-05-07T17:08:46.891Z,25.39
2018-05-07T17:10:58.018Z,25.39
2018-05-07T17:13:09.158Z,25.33
2018-05-07T17:15:20.259Z,25.30
2018-05-07T17:17:31.391Z,25.24
2018-05-07T17:19:42.496Z,25.22
2018-05-07T17:21:53.757Z,25.19
2018-05-07T17:24:04.861Z,25.18
2018-05-07T17:26:16.062Z,25.16
2018-05-07T17:28:27.172Z,25.11
2018-05-07T17:30:38.251Z,25.03
2018-05-07T17:32:49.349Z,25.02
2018-05-07T17:35:00.417Z,25.01
2018-05-07T17:37:11.535Z,24.97
2018-05-07T17:39:22.663Z,24.97
2018-05-07T17:41:33.872Z,24.96
2018-05-07T17:43:45.005Z,24.93
2018-05-07T17:46:08.290Z,24.91
2018-05-07T17:48:31.445Z,24.85
2018-05-07T17:50:42.539Z,24.81
2018-05-07T17:52:53.678Z,24.75
2018-05-07T17:55:04.807Z,24.74
2018-05-07T17:57:15.917Z,24.70
2018-05-07T17:59:27.010Z,24.60
2018-05-07T18:01:38.187Z,24.58
2018-05-07T18:03:49.690Z,24.56
2018-05-07T18:06:00.919Z,24.51
2018-05-07T18:08:12.158Z,24.44
2018-05-07T18:10:23.272Z,24.40
2018-05-07T18:12:34.415Z,24.37
2018-05-07T18:14:45.522Z,24.33
2018-05-07T18:16:56.666Z,24.30
2018-05-07T18:19:07.884Z,24.28
2018-05-07T18:21:18.899Z,24.21
2018-05-07T18:23:30.049Z,24.18
2018-05-07T18:25:41.160Z,24.14
2018-05-07T18:27:52.505Z,24.14
2018-05-07T18:30:03.675Z,24.08
2018-05-07T18:32:14.798Z,24.07
2018-05-07T18:34:25.875Z,24.09
2018-05-07T18:36:36.942Z,24.05
2018-05-07T18:38:48.073Z,24.02
2018-05-07T18:40:59.131Z,23.99
2018-05-07T18:43:10.232Z,23.95
2018-05-07T18:45:21.328Z,23.89
2018-05-07T18:47:32.521Z,23.86
2018-05-07T18:49:43.623Z,23.81
2018-05-07T18:51:54.691Z,23.61
2018-05-07T18:54:05.798Z,23.42
2018-05-07T18:56:16.862Z,23.14
2018-05-07T18:58:28.040Z,22.80
2018-05-07T19:00:39.168Z,22.52
2018-05-07T19:02:50.277Z,22.19
2018-05-07T19:05:01.394Z,21.90
2018-05-07T19:07:12.552Z,21.76
2018-05-07T19:09:23.658Z,21.65
2018-05-07T19:11:34.795Z,21.58
2018-05-07T19:13:45.965Z,21.53
2018-05-07T19:15:57.114Z,21.41
2018-05-07T19:18:08.253Z,21.32
2018-05-07T19:20:19.350Z,21.26
2018-05-07T19:22:30.590Z,21.18
2018-05-07T19:24:41.704Z,21.03
2018-05-07T19:26:52.944Z,20.88
2018-05-07T19:29:04.201Z,20.81
2018-05-07T19:31:15.350Z,20.73
2018-05-07T19:33:26.555Z,20.68
2018-05-07T19:35:37.654Z,20.55
2018-05-07T19:37:48.729Z,20.50
2018-05-07T19:39:59.898Z,20.39
2018-05-07T19:42:10.918Z,20.17
2018-05-07T19:44:22.057Z,20.00
2018-05-07T19:46:33.206Z,19.86
2018-05-07T19:48:44.303Z,19.77
2018-05-07T19:50:55.448Z,19.70
2018-05-07T19:53:06.677Z,19.70
2018-05-07T19:55:17.782Z,19.68
2018-05-07T19:57:28.882Z,19.62
2018-05-07T19:59:40.106Z,19.56
2018-05-07T20:01:51.127Z,19.46
2018-05-07T20:04:02.257Z,19.37
2018-05-07T20:06:13.420Z,19.28
2018-05-07T20:08:24.572Z,19.26
2018-05-07T20:10:35.634Z,19.18
2018-05-07T20:12:46.947Z,19.08
2018-05-07T20:14:58.075Z,19.04
2018-05-07T20:17:09.214Z,18.97
2018-05-07T20:19:20.404Z,18.89
2018-05-07T20:21:31.445Z,18.64
2018-05-07T20:23:42.561Z,18.40
2018-05-07T20:25:53.658Z,18.23
2018-05-07T20:28:04.831Z,18.22
2018-05-07T20:30:15.983Z,18.23
2018-05-07T20:32:29.125Z,18.20
2018-05-07T20:34:40.215Z,18.20
2018-05-07T20:36:51.305Z,18.16
2018-05-07T20:39:02.430Z,18.09
2018-05-07T20:41:13.531Z,18.05
2018-05-07T20:43:24.633Z,17.98
2018-05-07T20:45:35.688Z,17.87
2018-05-07T20:47:47.023Z,17.78
2018-05-07T20:49:58.350Z,17.82
2018-05-07T20:52:09.428Z,17.83
2018-05-07T20:54:20.627Z,17.77
2018-05-07T20:56:31.702Z,17.77
2018-05-07T20:58:42.823Z,17.73
2018-05-07T21:00:53.867Z,17.52
2018-05-07T21:03:04.953Z,17.45
2018-05-07T21:05:16.090Z,17.38
2018-05-07T21:07:27.206Z,17.23
2018-05-07T21:09:38.308Z,17.07
2018-05-07T21:11:49.385Z,16.96
2018-05-07T21:14:00.646Z,16.86
2018-05-07T21:16:11.801Z,16.82
2018-05-07T21:18:22.905Z,16.72
2018-05-07T21:20:34.042Z,16.63
2018-05-07T21:22:45.131Z,16.56
2018-05-07T21:24:56.258Z,16.50
2018-05-07T21:27:07.358Z,16.51
2018-05-07T21:29:18.487Z,16.51
2018-05-07T21:31:29.590Z,16.49
2018-05-07T21:33:40.723Z,16.39
2018-05-07T21:35:51.899Z,16.34
2018-05-07T21:38:02.934Z,16.37
2018-05-07T21:40:14.018Z,16.32
2018-05-07T21:42:25.199Z,16.28
2018-05-07T21:44:36.299Z,16.31
2018-05-07T21:46:47.421Z,16.32
2018-05-07T21:48:58.522Z,16.38
2018-05-07T21:51:09.618Z,16.39
2018-05-07T21:53:20.726Z,16.39
2018-05-07T21:55:31.798Z,16.36
2018-05-07T21:57:42.941Z,16.29
2018-05-07T21:59:53.996Z,16.19
2018-05-07T22:02:05.111Z,16.02
2018-05-07T22:04:16.186Z,15.92
2018-05-07T22:06:27.323Z,15.82
2018-05-07T22:08:38.414Z,15.74
2018-05-07T22:10:49.474Z,15.62
2018-05-07T22:13:00.615Z,15.45
2018-05-07T22:15:11.682Z,15.41
2018-05-07T22:17:22.773Z,15.30
2018-05-07T22:19:33.866Z,15.26
2018-05-07T22:21:45.018Z,15.22
2018-05-07T22:23:56.128Z,15.21
2018-05-07T22:26:07.253Z,15.24
2018-05-07T22:28:18.349Z,15.28
2018-05-07T22:30:29.409Z,15.25
2018-05-07T22:32:40.542Z,15.28
2018-05-07T22:34:51.634Z,15.26
2018-05-07T22:37:02.852Z,15.29
2018-05-07T22:39:29.145Z,15.30
2018-05-07T22:41:40.315Z,15.38
2018-05-07T22:43:51.448Z,15.43
2018-05-07T22:46:02.609Z,15.43
2018-05-07T22:48:13.718Z,15.35
2018-05-07T22:50:24.929Z,15.25
2018-05-07T22:52:36.050Z,15.11
2018-05-07T22:54:47.162Z,14.89
2018-05-07T22:56:58.245Z,14.90
2018-05-07T22:59:09.330Z,14.82
2018-05-07T23:01:20.429Z,14.78
2018-05-07T23:03:31.609Z,14.79
2018-05-07T23:05:42.725Z,14.82
2018-05-07T23:07:53.782Z,14.83
2018-05-07T23:10:05.027Z,14.86
2018-05-07T23:12:16.094Z,14.90
2018-05-07T23:14:27.217Z,14.86
2018-05-07T23:16:38.288Z,14.76
2018-05-07T23:18:49.349Z,14.64
2018-05-07T23:21:00.542Z,14.51
2018-05-07T23:23:11.607Z,14.47
2018-05-07T23:25:22.807Z,14.39
2018-05-07T23:27:33.920Z,14.30
2018-05-07T23:29:45.081Z,14.24
2018-05-07T23:31:56.187Z,14.17
2018-05-07T23:34:07.237Z,14.19
2018-05-07T23:36:18.339Z,14.10
2018-05-07T23:38:29.421Z,14.06
2018-05-07T23:40:40.582Z,14.07
2018-05-07T23:42:51.786Z,14.04
2018-05-07T23:45:02.998Z,14.01
2018-05-07T23:47:14.090Z,13.97
2018-05-07T23:49:25.177Z,14.03
2018-05-07T23:51:36.262Z,14.03
2018-05-07T23:53:47.335Z,14.00
2018-05-07T23:55:58.415Z,13.97
2018-05-07T23:58:09.484Z,13.93
